createdAt,value
2022-09-14T00:01:24.739Z,18.00
2022-09-14T00:03:53.858Z,17.90
2022-09-14T00:06:20.396Z,18.00
2022-09-14T00:08:49.810Z,17.90
2022-09-14T00:11:16.450Z,18.00
2022-09-14T00:13:43.946Z,17.90
2022-09-14T00:16:12.484Z,18.00
2022-09-14T00:18:39.032Z,17.90
2022-09-14T00:21:07.118Z,17.90
2022-09-14T00:23:37.993Z,17.90
2022-09-14T00:26:06.177Z,17.90
2022-09-14T00:28:43.030Z,18.00
2022-09-14T00:31:09.698Z,18.00
2022-09-14T00:33:37.758Z,18.00
2022-09-14T00:36:08.739Z,18.00
2022-09-14T00:38:35.792Z,17.90
2022-09-14T00:41:03.084Z,17.90
2022-09-14T00:43:29.748Z,17.90
2022-09-14T00:45:56.348Z,17.90
2022-09-14T00:48:24.156Z,17.90
2022-09-14T00:50:51.681Z,17.90
2022-09-14T00:53:18.313Z,17.90
2022-09-14T00:55:45.184Z,17.90
2022-09-14T00:58:11.862Z,17.90
2022-09-14T01:00:38.468Z,17.90
2022-09-14T01:03:05.107Z,17.80
2022-09-14T01:05:58.025Z,17.80
2022-09-14T01:08:43.419Z,17.80
2022-09-14T01:11:39.206Z,17.90
2022-09-14T01:14:18.604Z,17.80
2022-09-14T01:17:08.330Z,17.80
2022-09-14T01:19:53.311Z,17.90
2022-09-14T01:22:32.484Z,17.80
2022-09-14T01:25:17.711Z,17.80
2022-09-14T01:27:45.036Z,17.80
2022-09-14T01:30:12.913Z,17.80
2022-09-14T01:32:42.336Z,17.80
2022-09-14T01:35:21.187Z,17.80
2022-09-14T01:37:47.723Z,17.70
2022-09-14T01:40:17.919Z,17.70
2022-09-14T01:42:46.488Z,17.70
2022-09-14T01:45:16.428Z,17.80
2022-09-14T01:47:46.936Z,17.70
2022-09-14T01:50:26.271Z,17.70
2022-09-14T01:52:58.341Z,17.70
2022-09-14T01:55:27.900Z,17.70
2022-09-14T01:58:09.832Z,17.70
2022-09-14T02:00:39.363Z,17.70
2022-09-14T02:03:09.009Z,17.70
2022-09-14T02:05:55.667Z,17.70
2022-09-14T02:08:22.589Z,17.70
2022-09-14T02:10:49.144Z,17.70
2022-09-14T02:13:15.702Z,17.70
2022-09-14T02:15:42.451Z,17.70
2022-09-14T02:18:09.097Z,17.60
2022-09-14T02:20:47.332Z,17.70
2022-09-14T02:23:14.096Z,17.60
2022-09-14T02:25:44.705Z,17.60
2022-09-14T02:28:11.318Z,17.60
2022-09-14T02:30:56.827Z,17.60
2022-09-14T02:33:32.041Z,17.60
2022-09-14T02:36:01.580Z,17.50
2022-09-14T02:38:34.344Z,17.60
2022-09-14T02:41:18.979Z,17.60
2022-09-14T02:43:48.314Z,17.60
2022-09-14T02:46:26.527Z,17.50
2022-09-14T02:49:12.390Z,17.50
2022-09-14T02:51:48.070Z,17.50
2022-09-14T02:54:21.466Z,17.50
2022-09-14T02:56:48.300Z,17.50
2022-09-14T02:59:14.971Z,17.50
2022-09-14T03:01:41.570Z,17.50
2022-09-14T03:04:08.078Z,17.50
2022-09-14T03:06:34.630Z,17.50
2022-09-14T03:09:01.277Z,17.50
2022-09-14T03:11:27.905Z,17.50
2022-09-14T03:13:54.436Z,17.50
2022-09-14T03:16:21.025Z,17.50
2022-09-14T03:18:47.656Z,17.50
2022-09-14T03:21:15.629Z,17.50
2022-09-14T03:23:43.681Z,17.50
2022-09-14T03:26:11.604Z,17.50
2022-09-14T03:28:38.365Z,17.50
2022-09-14T03:31:06.098Z,17.50
2022-09-14T03:33:33.030Z,17.50
2022-09-14T03:35:59.795Z,17.60
2022-09-14T03:38:30.171Z,17.60
2022-09-14T03:40:58.056Z,17.50
2022-09-14T03:43:24.579Z,17.50
2022-09-14T03:45:51.129Z,17.50
2022-09-14T03:48:17.705Z,17.50
2022-09-14T03:50:44.870Z,17.60
2022-09-14T03:53:11.576Z,17.50
2022-09-14T03:55:39.679Z,17.60
2022-09-14T03:58:06.219Z,17.50
2022-09-14T04:00:32.730Z,17.50
2022-09-14T04:02:59.931Z,17.50
2022-09-14T04:05:26.538Z,17.50
2022-09-14T04:07:53.188Z,17.50
2022-09-14T04:10:19.750Z,17.50
2022-09-14T04:12:46.301Z,17.50
2022-09-14T04:15:12.806Z,17.50
2022-09-14T04:17:40.490Z,17.50
2022-09-14T04:20:07.584Z,17.50
2022-09-14T04:22:34.193Z,17.40
2022-09-14T04:25:00.721Z,17.40
2022-09-14T04:27:27.233Z,17.40
2022-09-14T04:29:53.774Z,17.40
2022-09-14T04:32:20.284Z,17.40
2022-09-14T04:34:48.214Z,17.40
2022-09-14T04:37:14.755Z,17.50
2022-09-14T04:39:42.377Z,17.50
2022-09-14T04:42:08.960Z,17.50
2022-09-14T04:44:35.489Z,17.50
2022-09-14T04:47:02.051Z,17.50
2022-09-14T04:49:28.649Z,17.50
2022-09-14T04:51:55.188Z,17.40
2022-09-14T04:54:22.113Z,17.40
2022-09-14T04:56:48.626Z,17.40
2022-09-14T04:59:15.458Z,17.40
2022-09-14T05:01:43.945Z,17.40
2022-09-14T05:04:11.654Z,17.30
2022-09-14T05:06:39.408Z,17.30
2022-09-14T05:09:07.246Z,17.30
2022-09-14T05:11:35.066Z,17.30
2022-09-14T05:14:02.208Z,17.30
2022-09-14T05:16:30.090Z,17.30
2022-09-14T05:18:57.865Z,17.30
2022-09-14T05:21:24.716Z,17.30
2022-09-14T05:23:58.599Z,17.30
2022-09-14T05:26:26.409Z,17.30
2022-09-14T05:28:54.325Z,17.40
2022-09-14T05:31:21.493Z,17.30
2022-09-14T05:33:48.410Z,17.30
2022-09-14T05:36:15.277Z,17.30
2022-09-14T05:38:42.391Z,17.30
2022-09-14T05:41:10.348Z,17.30
2022-09-14T05:43:37.019Z,17.30
2022-09-14T05:46:04.741Z,17.30
2022-09-14T05:48:32.248Z,17.40
2022-09-14T05:51:03.196Z,17.40
2022-09-14T05:53:29.898Z,17.40
2022-09-14T05:56:03.800Z,17.40
2022-09-14T05:58:30.688Z,17.30
2022-09-14T06:00:57.333Z,17.30
2022-09-14T06:03:24.012Z,17.30
2022-09-14T06:05:50.513Z,17.30
2022-09-14T06:08:17.026Z,17.30
2022-09-14T06:10:43.606Z,17.30
2022-09-14T06:13:10.121Z,17.30
2022-09-14T06:15:36.697Z,17.30
2022-09-14T06:18:04.625Z,17.30
2022-09-14T06:20:31.207Z,17.30
2022-09-14T06:22:57.751Z,17.30
2022-09-14T06:25:24.449Z,17.30
2022-09-14T06:27:53.527Z,17.30
2022-09-14T06:30:20.070Z,17.30
2022-09-14T06:32:46.640Z,17.30
2022-09-14T06:35:13.159Z,17.30
2022-09-14T06:37:39.692Z,17.30
2022-09-14T06:40:06.567Z,17.30
2022-09-14T06:42:33.167Z,17.30
2022-09-14T06:44:59.673Z,17.30
2022-09-14T06:47:30.982Z,17.20
2022-09-14T06:49:57.791Z,17.20
2022-09-14T06:52:24.333Z,17.20
2022-09-14T06:54:50.842Z,17.20
2022-09-14T06:57:17.480Z,17.20
2022-09-14T06:59:44.680Z,17.20
2022-09-14T07:02:13.319Z,17.40
2022-09-14T07:04:39.928Z,17.30
2022-09-14T07:07:06.462Z,17.30
2022-09-14T07:09:32.973Z,17.30
2022-09-14T07:11:59.547Z,17.30
2022-09-14T07:14:29.262Z,17.30
2022-09-14T07:16:58.176Z,17.30
2022-09-14T07:19:24.734Z,17.30
2022-09-14T07:21:53.783Z,17.40
2022-09-14T07:24:20.490Z,17.40
2022-09-14T07:26:47.533Z,17.40
2022-09-14T07:29:16.253Z,17.50
2022-09-14T07:31:44.546Z,17.50
2022-09-14T07:34:11.728Z,17.50
2022-09-14T07:36:38.625Z,17.60
2022-09-14T07:39:06.533Z,17.70
2022-09-14T07:41:34.153Z,17.70
2022-09-14T07:44:01.399Z,17.70
2022-09-14T07:46:29.024Z,17.80
2022-09-14T07:48:56.638Z,17.80
2022-09-14T07:51:23.817Z,17.90
2022-09-14T07:53:50.579Z,17.90
2022-09-14T07:56:17.685Z,18.00
2022-09-14T07:58:44.500Z,18.00
2022-09-14T08:01:12.550Z,18.10
2022-09-14T08:03:40.421Z,18.20
2022-09-14T08:06:08.541Z,18.20
2022-09-14T08:08:36.430Z,18.20
2022-09-14T08:11:05.665Z,18.30
2022-09-14T08:13:35.275Z,18.30
2022-09-14T08:16:02.175Z,18.30
2022-09-14T08:18:29.563Z,18.40
2022-09-14T08:20:56.310Z,18.40
2022-09-14T08:23:23.424Z,18.40
2022-09-14T08:25:49.938Z,18.50
2022-09-14T08:28:16.455Z,18.60
2022-09-14T08:30:43.207Z,18.60
2022-09-14T08:33:09.714Z,18.70
2022-09-14T08:35:57.382Z,18.80
2022-09-14T08:38:24.652Z,18.90
2022-09-14T08:40:51.521Z,18.90
2022-09-14T08:43:19.561Z,19.00
2022-09-14T08:45:47.823Z,19.00
2022-09-14T08:48:37.928Z,19.00
2022-09-14T08:51:05.510Z,19.10
2022-09-14T08:53:35.024Z,19.20
2022-09-14T08:56:11.058Z,19.20
2022-09-14T08:58:50.522Z,19.30
2022-09-14T09:01:26.922Z,19.20
2022-09-14T09:04:01.261Z,19.30
2022-09-14T09:06:37.274Z,19.30
2022-09-14T09:09:10.118Z,19.40
2022-09-14T09:11:41.623Z,19.40
2022-09-14T09:14:18.780Z,19.40
2022-09-14T09:16:46.912Z,19.50
2022-09-14T09:19:16.637Z,19.50
2022-09-14T09:21:45.266Z,19.50
2022-09-14T09:24:21.127Z,19.60
2022-09-14T09:26:47.702Z,19.70
2022-09-14T09:29:14.349Z,19.70
2022-09-14T09:31:47.316Z,19.70
2022-09-14T09:34:14.981Z,19.70
2022-09-14T09:36:43.818Z,19.80
2022-09-14T09:39:10.360Z,19.80
2022-09-14T09:41:57.155Z,19.80
2022-09-14T09:44:23.739Z,19.90
2022-09-14T09:46:51.445Z,19.90
2022-09-14T09:49:20.252Z,19.90
2022-09-14T09:51:46.823Z,19.90
2022-09-14T09:54:13.373Z,20.00
2022-09-14T09:56:41.762Z,20.00
2022-09-14T09:59:27.146Z,20.00
2022-09-14T10:01:54.752Z,20.00
2022-09-14T10:04:23.022Z,20.00
2022-09-14T10:06:50.390Z,20.10
2022-09-14T10:09:29.661Z,20.10
2022-09-14T10:12:03.739Z,20.20
2022-09-14T10:14:34.620Z,20.40
2022-09-14T10:17:15.782Z,20.70
2022-09-14T10:19:46.561Z,21.00
2022-09-14T10:22:27.933Z,21.50
2022-09-14T10:25:14.711Z,21.80
2022-09-14T10:28:01.565Z,22.20
2022-09-14T10:30:34.456Z,22.40
2022-09-14T10:33:02.505Z,22.60
2022-09-14T10:35:34.970Z,22.80
2022-09-14T10:38:10.560Z,23.00
2022-09-14T10:40:38.466Z,23.20
2022-09-14T10:43:22.740Z,23.20
2022-09-14T10:45:50.441Z,23.30
2022-09-14T10:48:17.187Z,23.10
2022-09-14T10:51:04.091Z,23.10
2022-09-14T10:53:47.887Z,23.30
2022-09-14T10:56:19.053Z,23.50
2022-09-14T10:59:03.372Z,23.80
2022-09-14T11:01:43.465Z,23.90
2022-09-14T11:04:29.009Z,24.00
2022-09-14T11:07:14.378Z,23.90
2022-09-14T11:10:06.795Z,23.80
2022-09-14T11:12:40.837Z,23.90
2022-09-14T11:15:26.438Z,23.70
2022-09-14T11:18:01.584Z,23.60
2022-09-14T11:20:32.691Z,23.40
2022-09-14T11:23:02.293Z,23.30
2022-09-14T11:25:35.028Z,23.50
2022-09-14T11:28:05.328Z,23.70
2022-09-14T11:30:39.450Z,23.80
2022-09-14T11:33:07.908Z,23.90
2022-09-14T11:35:37.624Z,24.00
2022-09-14T11:38:10.857Z,24.20
2022-09-14T11:40:41.972Z,24.60
2022-09-14T11:43:08.559Z,24.80
2022-09-14T11:45:58.267Z,24.70
2022-09-14T11:48:44.221Z,24.90
2022-09-14T11:51:16.345Z,25.30
2022-09-14T11:53:43.563Z,25.50
2022-09-14T11:56:24.522Z,25.50
2022-09-14T11:58:52.091Z,25.60
2022-09-14T12:01:37.734Z,25.80
2022-09-14T12:04:07.497Z,25.60
2022-09-14T12:06:34.077Z,25.60
2022-09-14T12:09:21.219Z,25.50
2022-09-14T12:11:51.786Z,25.40
2022-09-14T12:14:24.099Z,25.70
2022-09-14T12:17:17.268Z,25.90
2022-09-14T12:19:58.559Z,26.10
2022-09-14T12:22:30.345Z,26.40
2022-09-14T12:25:03.082Z,26.80
2022-09-14T12:27:31.301Z,26.70
2022-09-14T12:29:58.214Z,27.00
2022-09-14T12:32:26.663Z,27.00
2022-09-14T12:35:11.977Z,27.00
2022-09-14T12:37:38.498Z,27.10
2022-09-14T12:40:20.452Z,27.30
2022-09-14T12:42:47.063Z,27.90
2022-09-14T12:45:32.320Z,28.90
2022-09-14T12:47:58.897Z,29.80
2022-09-14T12:50:27.034Z,30.50
2022-09-14T12:53:01.173Z,30.90
2022-09-14T12:55:37.287Z,30.90
2022-09-14T12:58:17.420Z,31.10
2022-09-14T13:00:48.716Z,31.40
2022-09-14T13:03:22.897Z,31.50
2022-09-14T13:05:49.468Z,31.70
2022-09-14T13:08:20.606Z,32.10
2022-09-14T13:10:49.009Z,32.10
2022-09-14T13:13:23.526Z,31.60
2022-09-14T13:15:52.395Z,30.80
2022-09-14T13:18:18.925Z,30.30
2022-09-14T13:20:53.097Z,29.70
2022-09-14T13:23:27.073Z,29.40
2022-09-14T13:25:53.731Z,29.00
2022-09-14T13:28:20.690Z,29.10
2022-09-14T13:31:00.315Z,29.00
2022-09-14T13:33:28.316Z,29.10
2022-09-14T13:36:04.152Z,29.10
2022-09-14T13:38:32.056Z,28.90
2022-09-14T13:41:25.115Z,28.60
2022-09-14T13:43:54.131Z,28.40
2022-09-14T13:46:21.889Z,28.10
2022-09-14T13:48:48.869Z,27.60
2022-09-14T13:51:15.706Z,27.50
2022-09-14T13:53:42.531Z,27.00
2022-09-14T13:56:29.684Z,26.90
2022-09-14T13:59:22.632Z,26.60
2022-09-14T14:01:51.635Z,26.30
2022-09-14T14:04:29.331Z,26.10
2022-09-14T14:07:01.575Z,26.00
2022-09-14T14:09:38.582Z,25.80
2022-09-14T14:12:05.221Z,25.50
2022-09-14T14:14:31.852Z,25.30
2022-09-14T14:17:13.499Z,25.00
2022-09-14T14:19:40.516Z,24.90
2022-09-14T14:22:20.788Z,24.70
2022-09-14T14:27:37.521Z,24.30
2022-09-14T14:30:13.170Z,24.00
2022-09-14T14:32:39.772Z,23.90
2022-09-14T14:35:17.067Z,23.90
2022-09-14T14:37:43.740Z,23.60
2022-09-14T14:40:13.401Z,23.50
2022-09-14T14:42:40.335Z,23.30
2022-09-14T14:45:07.485Z,23.10
2022-09-14T14:47:33.991Z,22.90
2022-09-14T14:50:01.084Z,22.80
2022-09-14T14:52:27.683Z,22.70
2022-09-14T14:54:54.214Z,22.60
2022-09-14T14:57:20.730Z,22.50
2022-09-14T14:59:51.510Z,22.40
2022-09-14T15:02:18.028Z,22.30
2022-09-14T15:04:44.515Z,22.20
2022-09-14T15:07:11.021Z,22.00
2022-09-14T15:09:37.602Z,21.90
2022-09-14T15:12:04.127Z,21.80
2022-09-14T15:14:30.751Z,21.70
2022-09-14T15:17:00.152Z,21.60
2022-09-14T15:19:27.082Z,21.70
2022-09-14T15:21:57.286Z,21.70
2022-09-14T15:24:26.850Z,21.60
2022-09-14T15:26:54.307Z,21.40
2022-09-14T15:29:20.814Z,21.30
2022-09-14T15:31:47.451Z,21.20
2022-09-14T15:34:14.033Z,21.20
2022-09-14T15:36:47.702Z,21.10
2022-09-14T15:39:14.629Z,21.10
2022-09-14T15:41:41.982Z,21.10
2022-09-14T15:44:09.193Z,21.10
2022-09-14T15:46:35.958Z,21.00
2022-09-14T15:49:07.113Z,20.90
2022-09-14T15:51:33.891Z,20.90
2022-09-14T15:54:01.095Z,20.80
2022-09-14T15:56:27.671Z,20.80
2022-09-14T15:58:56.891Z,20.70
2022-09-14T16:01:23.550Z,20.70
2022-09-14T16:03:55.279Z,20.70
2022-09-14T16:06:21.794Z,20.70
2022-09-14T16:08:48.346Z,20.70
2022-09-14T16:11:14.852Z,20.70
2022-09-14T16:13:41.357Z,20.60
2022-09-14T16:16:11.850Z,20.70
2022-09-14T16:18:38.956Z,20.60
2022-09-14T16:21:05.721Z,20.60
2022-09-14T16:23:33.965Z,20.50
2022-09-14T16:26:00.585Z,20.50
2022-09-14T16:28:27.440Z,20.50
2022-09-14T16:30:53.953Z,20.50
2022-09-14T16:33:20.475Z,20.40
2022-09-14T16:35:47.058Z,20.30
2022-09-14T16:38:13.553Z,20.30
2022-09-14T16:40:42.929Z,20.20
2022-09-14T16:43:09.566Z,20.20
2022-09-14T16:45:36.135Z,20.20
2022-09-14T16:48:02.803Z,20.10
2022-09-14T16:50:29.442Z,20.10
2022-09-14T16:52:55.975Z,20.20
2022-09-14T16:55:22.504Z,20.00
2022-09-14T16:57:49.069Z,20.00
2022-09-14T17:00:15.625Z,20.00
2022-09-14T17:02:42.768Z,19.90
2022-09-14T17:05:09.513Z,19.90
2022-09-14T17:07:36.031Z,19.90
2022-09-14T17:10:02.579Z,19.90
2022-09-14T17:12:29.162Z,19.80
2022-09-14T17:14:55.693Z,19.70
2022-09-14T17:17:22.222Z,19.70
2022-09-14T17:19:48.734Z,19.70
2022-09-14T17:22:15.511Z,19.70
2022-09-14T17:24:42.022Z,19.60
2022-09-14T17:27:09.115Z,19.70
2022-09-14T17:29:38.433Z,19.60
2022-09-14T17:32:05.029Z,19.50
2022-09-14T17:34:31.547Z,19.50
2022-09-14T17:36:58.129Z,19.50
2022-09-14T17:39:25.061Z,19.50
2022-09-14T17:41:51.560Z,19.40
2022-09-14T17:44:19.853Z,19.40
2022-09-14T17:46:52.511Z,19.40
2022-09-14T17:49:21.108Z,19.30
2022-09-14T17:51:48.122Z,19.30
2022-09-14T17:54:15.154Z,19.20
2022-09-14T17:56:41.861Z,19.20
2022-09-14T17:59:11.168Z,19.20
2022-09-14T18:01:38.024Z,19.10
2022-09-14T18:04:07.494Z,19.00
2022-09-14T18:06:35.976Z,19.00
2022-09-14T18:09:04.585Z,19.00
2022-09-14T18:11:31.781Z,19.00
2022-09-14T18:13:58.699Z,18.50
2022-09-14T18:16:26.167Z,18.90
2022-09-14T18:18:52.847Z,18.90
2022-09-14T18:21:19.607Z,18.90
2022-09-14T18:23:49.939Z,18.90
2022-09-14T18:26:16.761Z,18.90
2022-09-14T18:28:44.655Z,18.90
2022-09-14T18:31:12.208Z,18.80
2022-09-14T18:33:39.227Z,18.80
2022-09-14T18:36:06.572Z,18.70
2022-09-14T18:38:33.151Z,18.70
2022-09-14T18:41:06.334Z,18.70
2022-09-14T18:43:33.231Z,18.70
2022-09-14T18:46:00.117Z,18.70
2022-09-14T18:48:26.724Z,18.70
2022-09-14T18:50:53.359Z,18.70
2022-09-14T18:53:19.996Z,18.70
2022-09-14T18:55:48.348Z,18.70
2022-09-14T18:58:14.919Z,18.60
2022-09-14T19:00:45.799Z,18.70
2022-09-14T19:03:12.690Z,18.70
2022-09-14T19:05:41.079Z,18.70
2022-09-14T19:08:08.373Z,18.60
2022-09-14T19:10:35.795Z,18.60
2022-09-14T19:13:02.311Z,18.50
2022-09-14T19:15:32.577Z,18.50
2022-09-14T19:17:59.487Z,18.40
2022-09-14T19:20:31.293Z,18.40
2022-09-14T19:23:09.934Z,18.40
2022-09-14T19:25:40.005Z,18.30
2022-09-14T19:28:07.268Z,18.30
2022-09-14T19:30:36.210Z,18.30
2022-09-14T19:33:02.881Z,18.20
2022-09-14T19:35:30.198Z,18.20
2022-09-14T19:37:57.249Z,18.10
2022-09-14T19:40:24.655Z,18.10
2022-09-14T19:42:51.889Z,18.10
2022-09-14T19:45:19.087Z,18.10
2022-09-14T19:47:45.809Z,18.10
2022-09-14T19:50:12.377Z,18.00
2022-09-14T19:52:38.921Z,18.00
2022-09-14T19:55:05.710Z,18.00
2022-09-14T19:57:32.250Z,17.90
2022-09-14T19:59:58.941Z,18.00
2022-09-14T20:02:25.560Z,17.80
2022-09-14T20:04:52.181Z,17.90
2022-09-14T20:07:19.016Z,17.90
2022-09-14T20:09:45.584Z,17.90
2022-09-14T20:12:12.110Z,17.90
2022-09-14T20:14:38.635Z,17.80
2022-09-14T20:17:05.655Z,17.80
2022-09-14T20:19:32.988Z,17.70
2022-09-14T20:21:59.474Z,17.70
2022-09-14T20:24:27.551Z,17.70
2022-09-14T20:26:55.648Z,17.60
2022-09-14T20:29:23.179Z,17.60
2022-09-14T20:31:50.379Z,17.60
2022-09-14T20:34:20.274Z,17.50
2022-09-14T20:36:47.870Z,17.50
2022-09-14T20:39:14.624Z,17.50
2022-09-14T20:41:41.523Z,17.50
2022-09-14T20:44:08.584Z,17.40
2022-09-14T20:46:39.439Z,17.40
2022-09-14T20:49:07.689Z,17.40
2022-09-14T20:51:35.062Z,17.40
2022-09-14T20:54:01.608Z,17.40
2022-09-14T20:56:28.939Z,17.40
2022-09-14T20:58:56.839Z,17.40
2022-09-14T21:01:24.252Z,17.40
2022-09-14T21:03:51.059Z,17.30
2022-09-14T21:06:19.228Z,17.30
2022-09-14T21:08:46.075Z,17.30
2022-09-14T21:11:14.813Z,17.30
2022-09-14T21:13:41.991Z,17.30
2022-09-14T21:16:11.762Z,17.20
2022-09-14T21:18:38.684Z,17.20
2022-09-14T21:21:10.841Z,17.20
2022-09-14T21:23:37.542Z,17.10
2022-09-14T21:26:04.979Z,17.20
2022-09-14T21:28:31.708Z,17.10
2022-09-14T21:31:10.502Z,17.10
2022-09-14T21:33:38.231Z,17.20
2022-09-14T21:36:09.264Z,17.10
2022-09-14T21:38:36.468Z,17.10
2022-09-14T21:41:05.101Z,17.10
2022-09-14T21:43:31.655Z,17.10
2022-09-14T21:45:58.954Z,17.00
2022-09-14T21:48:26.018Z,17.00
2022-09-14T21:51:00.966Z,16.90
2022-09-14T21:53:27.503Z,17.00
2022-09-14T21:55:54.052Z,17.00
2022-09-14T21:58:20.732Z,17.00
2022-09-14T22:00:47.307Z,17.00
2022-09-14T22:03:14.169Z,17.00
2022-09-14T22:05:40.673Z,17.00
2022-09-14T22:08:07.775Z,16.90
2022-09-14T22:10:34.612Z,16.90
2022-09-14T22:13:01.299Z,16.90
2022-09-14T22:15:31.694Z,16.90
2022-09-14T22:18:01.991Z,16.90
2022-09-14T22:20:28.890Z,16.90
2022-09-14T22:22:55.453Z,16.80
2022-09-14T22:25:24.922Z,16.80
2022-09-14T22:27:51.711Z,16.80
2022-09-14T22:30:18.865Z,16.80
2022-09-14T22:32:45.412Z,16.80
2022-09-14T22:35:12.295Z,16.80
2022-09-14T22:37:38.867Z,16.80
2022-09-14T22:40:05.714Z,16.80
2022-09-14T22:45:23.025Z,16.70
2022-09-14T22:47:49.553Z,16.80
2022-09-14T22:50:16.243Z,16.70
2022-09-14T22:52:42.778Z,16.70
2022-09-14T22:55:09.512Z,16.70
2022-09-14T22:57:36.089Z,16.70
2022-09-14T23:00:03.427Z,16.70
2022-09-14T23:02:30.116Z,16.70
2022-09-14T23:04:56.733Z,16.70
2022-09-14T23:07:23.457Z,16.70
2022-09-14T23:09:50.008Z,16.70
2022-09-14T23:12:16.565Z,16.70
2022-09-14T23:14:43.098Z,16.70
2022-09-14T23:17:09.673Z,16.70
2022-09-14T23:19:36.260Z,16.80
2022-09-14T23:22:03.024Z,16.80
2022-09-14T23:24:29.750Z,16.70
2022-09-14T23:26:56.352Z,16.80
2022-09-14T23:29:22.904Z,16.80
2022-09-14T23:31:49.426Z,16.80
2022-09-14T23:34:16.689Z,16.90
2022-09-14T23:36:43.238Z,16.90
2022-09-14T23:39:09.909Z,16.90
2022-09-14T23:41:36.541Z,17.00
2022-09-14T23:44:03.281Z,17.00
2022-09-14T23:46:29.901Z,17.00
2022-09-14T23:48:56.530Z,17.00
2022-09-14T23:51:23.124Z,17.00
2022-09-14T23:53:49.653Z,17.00
2022-09-14T23:56:16.232Z,17.00
2022-09-14T23:58:43.313Z,17.00
